sensor_id;sensor_type;location;lat;lon;timestamp;temperature;humidity
64937;SHT30;51452;47.698;19.050;2022-11-15T00:01:18;7.19;74.66
64937;SHT30;51452;47.698;19.050;2022-11-15T00:03:44;7.21;74.79
64937;SHT30;51452;47.698;19.050;2022-11-15T00:06:10;7.24;74.71
64937;SHT30;51452;47.698;19.050;2022-11-15T00:08:35;7.21;74.22
64937;SHT30;51452;47.698;19.050;2022-11-15T00:11:02;7.21;74.23
64937;SHT30;51452;47.698;19.050;2022-11-15T00:13:28;7.26;74.44
64937;SHT30;51452;47.698;19.050;2022-11-15T00:15:57;7.21;74.68
64937;SHT30;51452;47.698;19.050;2022-11-15T00:18:23;7.27;74.81
64937;SHT30;51452;47.698;19.050;2022-11-15T00:20:49;7.27;74.57
64937;SHT30;51452;47.698;19.050;2022-11-15T00:23:14;7.30;74.47
64937;SHT30;51452;47.698;19.050;2022-11-15T00:25:40;7.31;74.58
64937;SHT30;51452;47.698;19.050;2022-11-15T00:28:06;7.33;74.58
64937;SHT30;51452;47.698;19.050;2022-11-15T00:30:32;7.31;74.61
64937;SHT30;51452;47.698;19.050;2022-11-15T00:33:04;7.34;74.43
64937;SHT30;51452;47.698;19.050;2022-11-15T00:35:34;7.31;74.34
64937;SHT30;51452;47.698;19.050;2022-11-15T00:38:00;7.33;74.44
64937;SHT30;51452;47.698;19.050;2022-11-15T00:40:26;7.31;74.75
64937;SHT30;51452;47.698;19.050;2022-11-15T00:42:52;7.28;74.39
64937;SHT30;51452;47.698;19.050;2022-11-15T00:45:17;7.27;74.60
64937;SHT30;51452;47.698;19.050;2022-11-15T00:47:46;7.27;74.30
64937;SHT30;51452;47.698;19.050;2022-11-15T00:50:12;7.28;74.54
64937;SHT30;51452;47.698;19.050;2022-11-15T00:52:38;7.34;74.67
64937;SHT30;51452;47.698;19.050;2022-11-15T00:55:04;7.40;74.65
64937;SHT30;51452;47.698;19.050;2022-11-15T00:57:29;7.43;74.65
64937;SHT30;51452;47.698;19.050;2022-11-15T00:59:55;7.51;74.71
64937;SHT30;51452;47.698;19.050;2022-11-15T01:02:20;7.58;74.33
64937;SHT30;51452;47.698;19.050;2022-11-15T01:04:46;7.70;74.41
64937;SHT30;51452;47.698;19.050;2022-11-15T01:07:11;7.74;74.45
64937;SHT30;51452;47.698;19.050;2022-11-15T01:09:37;7.81;74.13
64937;SHT30;51452;47.698;19.050;2022-11-15T01:12:02;7.86;73.97
64937;SHT30;51452;47.698;19.050;2022-11-15T01:14:28;7.88;74.15
64937;SHT30;51452;47.698;19.050;2022-11-15T01:16:53;7.99;74.07
64937;SHT30;51452;47.698;19.050;2022-11-15T01:19:18;8.05;74.25
64937;SHT30;51452;47.698;19.050;2022-11-15T01:21:44;8.05;74.69
64937;SHT30;51452;47.698;19.050;2022-11-15T01:24:12;8.06;74.53
64937;SHT30;51452;47.698;19.050;2022-11-15T01:26:38;8.09;74.53
64937;SHT30;51452;47.698;19.050;2022-11-15T01:29:03;8.07;74.40
64937;SHT30;51452;47.698;19.050;2022-11-15T01:31:29;8.01;74.29
64937;SHT30;51452;47.698;19.050;2022-11-15T01:33:54;7.99;74.25
64937;SHT30;51452;47.698;19.050;2022-11-15T01:36:21;7.91;74.60
64937;SHT30;51452;47.698;19.050;2022-11-15T01:38:47;7.86;74.69
64937;SHT30;51452;47.698;19.050;2022-11-15T01:41:17;7.81;75.04
64937;SHT30;51452;47.698;19.050;2022-11-15T01:43:43;7.81;75.29
64937;SHT30;51452;47.698;19.050;2022-11-15T01:46:35;7.68;75.51
64937;SHT30;51452;47.698;19.050;2022-11-15T01:49:05;7.67;75.94
64937;SHT30;51452;47.698;19.050;2022-11-15T01:51:35;7.67;76.23
64937;SHT30;51452;47.698;19.050;2022-11-15T01:54:08;7.72;76.24
64937;SHT30;51452;47.698;19.050;2022-11-15T01:56:45;7.75;76.08
64937;SHT30;51452;47.698;19.050;2022-11-15T01:59:12;7.82;76.43
64937;SHT30;51452;47.698;19.050;2022-11-15T02:01:38;7.85;76.68
64937;SHT30;51452;47.698;19.050;2022-11-15T02:04:24;7.92;76.03
64937;SHT30;51452;47.698;19.050;2022-11-15T02:06:50;8.02;76.23
64937;SHT30;51452;47.698;19.050;2022-11-15T02:09:17;8.05;75.76
64937;SHT30;51452;47.698;19.050;2022-11-15T02:11:43;8.12;75.53
64937;SHT30;51452;47.698;19.050;2022-11-15T02:14:10;8.12;75.19
64937;SHT30;51452;47.698;19.050;2022-11-15T02:19:47;8.05;74.75
64937;SHT30;51452;47.698;19.050;2022-11-15T02:23:09;8.12;74.75
64937;SHT30;51452;47.698;19.050;2022-11-15T02:25:52;8.13;74.97
64937;SHT30;51452;47.698;19.050;2022-11-15T02:36:33;8.26;74.02
64937;SHT30;51452;47.698;19.050;2022-11-15T02:39:07;8.21;74.36
64937;SHT30;51452;47.698;19.050;2022-11-15T02:42:04;8.30;74.13
64937;SHT30;51452;47.698;19.050;2022-11-15T02:44:50;8.25;73.35
64937;SHT30;51452;47.698;19.050;2022-11-15T02:47:19;8.34;73.37
64937;SHT30;51452;47.698;19.050;2022-11-15T02:49:48;8.47;72.73
64937;SHT30;51452;47.698;19.050;2022-11-15T02:52:19;8.54;73.38
64937;SHT30;51452;47.698;19.050;2022-11-15T02:54:58;8.57;73.52
64937;SHT30;51452;47.698;19.050;2022-11-15T03:00:19;8.68;74.33
64937;SHT30;51452;47.698;19.050;2022-11-15T03:05:23;8.65;72.92
64937;SHT30;51452;47.698;19.050;2022-11-15T03:08:17;8.65;72.68
64937;SHT30;51452;47.698;19.050;2022-11-15T03:13:48;8.67;73.61
64937;SHT30;51452;47.698;19.050;2022-11-15T03:16:21;8.68;73.84
64937;SHT30;51452;47.698;19.050;2022-11-15T03:18:58;8.61;73.91
64937;SHT30;51452;47.698;19.050;2022-11-15T03:21:27;8.53;73.86
64937;SHT30;51452;47.698;19.050;2022-11-15T03:23:54;8.46;73.99
64937;SHT30;51452;47.698;19.050;2022-11-15T03:26:21;8.40;73.69
64937;SHT30;51452;47.698;19.050;2022-11-15T03:29:04;8.32;73.67
64937;SHT30;51452;47.698;19.050;2022-11-15T03:31:33;8.34;73.53
64937;SHT30;51452;47.698;19.050;2022-11-15T03:36:46;8.33;74.20
64937;SHT30;51452;47.698;19.050;2022-11-15T03:39:13;8.36;74.26
64937;SHT30;51452;47.698;19.050;2022-11-15T03:41:56;8.33;74.17
64937;SHT30;51452;47.698;19.050;2022-11-15T03:44:50;8.37;74.53
64937;SHT30;51452;47.698;19.050;2022-11-15T03:47:25;8.33;74.35
64937;SHT30;51452;47.698;19.050;2022-11-15T03:49:53;8.33;74.64
64937;SHT30;51452;47.698;19.050;2022-11-15T03:52:21;8.33;74.88
64937;SHT30;51452;47.698;19.050;2022-11-15T03:54:55;8.33;74.90
64937;SHT30;51452;47.698;19.050;2022-11-15T03:57:21;8.36;74.70
64937;SHT30;51452;47.698;19.050;2022-11-15T03:59:47;8.37;74.66
64937;SHT30;51452;47.698;19.050;2022-11-15T04:02:13;8.42;74.60
64937;SHT30;51452;47.698;19.050;2022-11-15T04:04:38;8.44;74.81
64937;SHT30;51452;47.698;19.050;2022-11-15T04:07:04;8.46;75.03
64937;SHT30;51452;47.698;19.050;2022-11-15T04:09:30;8.47;74.97
64937;SHT30;51452;47.698;19.050;2022-11-15T04:11:55;8.49;74.95
64937;SHT30;51452;47.698;19.050;2022-11-15T04:14:20;8.52;74.76
64937;SHT30;51452;47.698;19.050;2022-11-15T04:16:46;8.52;74.79
64937;SHT30;51452;47.698;19.050;2022-11-15T04:19:11;8.53;74.60
64937;SHT30;51452;47.698;19.050;2022-11-15T04:21:55;8.49;74.36
64937;SHT30;51452;47.698;19.050;2022-11-15T04:24:39;8.47;73.90
64937;SHT30;51452;47.698;19.050;2022-11-15T04:27:04;8.46;73.29
64937;SHT30;51452;47.698;19.050;2022-11-15T04:29:30;8.42;73.50
64937;SHT30;51452;47.698;19.050;2022-11-15T04:32:02;8.42;73.39
64937;SHT30;51452;47.698;19.050;2022-11-15T04:34:28;8.40;73.11
64937;SHT30;51452;47.698;19.050;2022-11-15T04:36:54;8.40;72.95
64937;SHT30;51452;47.698;19.050;2022-11-15T04:39:40;8.42;73.41
64937;SHT30;51452;47.698;19.050;2022-11-15T04:42:06;8.30;73.30
64937;SHT30;51452;47.698;19.050;2022-11-15T04:44:32;8.29;73.57
64937;SHT30;51452;47.698;19.050;2022-11-15T04:46:57;8.28;73.44
64937;SHT30;51452;47.698;19.050;2022-11-15T04:49:22;8.29;73.84
64937;SHT30;51452;47.698;19.050;2022-11-15T04:51:48;8.26;73.49
64937;SHT30;51452;47.698;19.050;2022-11-15T04:54:13;8.30;73.82
64937;SHT30;51452;47.698;19.050;2022-11-15T04:56:39;8.25;73.76
64937;SHT30;51452;47.698;19.050;2022-11-15T04:59:04;8.30;73.86
64937;SHT30;51452;47.698;19.050;2022-11-15T05:01:29;8.33;73.79
64937;SHT30;51452;47.698;19.050;2022-11-15T05:03:55;8.29;73.76
64937;SHT30;51452;47.698;19.050;2022-11-15T05:06:39;8.34;73.98
64937;SHT30;51452;47.698;19.050;2022-11-15T05:09:04;8.34;74.23
64937;SHT30;51452;47.698;19.050;2022-11-15T05:11:30;8.32;74.57
64937;SHT30;51452;47.698;19.050;2022-11-15T05:13:56;8.32;74.84
64937;SHT30;51452;47.698;19.050;2022-11-15T05:16:22;8.33;74.88
64937;SHT30;51452;47.698;19.050;2022-11-15T05:18:50;8.33;75.11
64937;SHT30;51452;47.698;19.050;2022-11-15T05:21:16;8.36;75.32
64937;SHT30;51452;47.698;19.050;2022-11-15T05:23:41;8.43;75.23
64937;SHT30;51452;47.698;19.050;2022-11-15T05:26:08;8.49;75.09
64937;SHT30;51452;47.698;19.050;2022-11-15T05:28:34;8.53;75.08
64937;SHT30;51452;47.698;19.050;2022-11-15T05:33:31;8.60;75.02
64937;SHT30;51452;47.698;19.050;2022-11-15T05:38:28;8.65;75.15
64937;SHT30;51452;47.698;19.050;2022-11-15T05:40:54;8.63;75.05
64937;SHT30;51452;47.698;19.050;2022-11-15T05:43:20;8.61;75.07
64937;SHT30;51452;47.698;19.050;2022-11-15T05:45:45;8.63;75.06
64937;SHT30;51452;47.698;19.050;2022-11-15T05:48:11;8.61;75.04
64937;SHT30;51452;47.698;19.050;2022-11-15T05:50:38;8.54;75.05
64937;SHT30;51452;47.698;19.050;2022-11-15T05:53:06;8.57;74.78
64937;SHT30;51452;47.698;19.050;2022-11-15T05:55:32;8.52;75.00
64937;SHT30;51452;47.698;19.050;2022-11-15T05:57:57;8.56;75.14
64937;SHT30;51452;47.698;19.050;2022-11-15T06:00:23;8.56;75.30
64937;SHT30;51452;47.698;19.050;2022-11-15T06:02:48;8.56;75.50
64937;SHT30;51452;47.698;19.050;2022-11-15T06:05:14;8.56;75.71
64937;SHT30;51452;47.698;19.050;2022-11-15T06:07:39;8.61;75.52
64937;SHT30;51452;47.698;19.050;2022-11-15T06:10:05;8.67;75.39
64937;SHT30;51452;47.698;19.050;2022-11-15T06:12:30;8.68;75.64
64937;SHT30;51452;47.698;19.050;2022-11-15T06:14:56;8.70;76.01
64937;SHT30;51452;47.698;19.050;2022-11-15T06:17:21;8.73;76.34
64937;SHT30;51452;47.698;19.050;2022-11-15T06:19:46;8.75;76.33
64937;SHT30;51452;47.698;19.050;2022-11-15T06:22:12;8.71;76.24
64937;SHT30;51452;47.698;19.050;2022-11-15T06:24:37;8.59;76.66
64937;SHT30;51452;47.698;19.050;2022-11-15T06:27:03;8.67;76.05
64937;SHT30;51452;47.698;19.050;2022-11-15T06:29:28;8.60;76.89
64937;SHT30;51452;47.698;19.050;2022-11-15T06:31:53;8.61;76.57
64937;SHT30;51452;47.698;19.050;2022-11-15T06:34:19;8.67;76.15
64937;SHT30;51452;47.698;19.050;2022-11-15T06:36:44;8.67;75.97
64937;SHT30;51452;47.698;19.050;2022-11-15T06:39:09;8.65;75.80
64937;SHT30;51452;47.698;19.050;2022-11-15T06:41:35;8.61;76.10
64937;SHT30;51452;47.698;19.050;2022-11-15T06:44:00;8.67;76.10
64937;SHT30;51452;47.698;19.050;2022-11-15T06:46:26;8.73;75.91
64937;SHT30;51452;47.698;19.050;2022-11-15T06:48:52;8.68;76.06
64937;SHT30;51452;47.698;19.050;2022-11-15T06:51:18;8.73;76.02
64937;SHT30;51452;47.698;19.050;2022-11-15T06:53:43;8.73;76.10
64937;SHT30;51452;47.698;19.050;2022-11-15T06:56:09;8.77;76.00
64937;SHT30;51452;47.698;19.050;2022-11-15T06:58:35;8.74;76.59
64937;SHT30;51452;47.698;19.050;2022-11-15T07:01:05;8.61;76.97
64937;SHT30;51452;47.698;19.050;2022-11-15T07:03:31;8.68;76.97
64937;SHT30;51452;47.698;19.050;2022-11-15T07:05:57;8.75;77.05
64937;SHT30;51452;47.698;19.050;2022-11-15T07:08:24;8.78;76.89
64937;SHT30;51452;47.698;19.050;2022-11-15T07:10:51;8.77;76.53
64937;SHT30;51452;47.698;19.050;2022-11-15T07:13:17;8.71;77.09
64937;SHT30;51452;47.698;19.050;2022-11-15T07:15:42;8.65;77.45
64937;SHT30;51452;47.698;19.050;2022-11-15T07:18:08;8.75;77.51
64937;SHT30;51452;47.698;19.050;2022-11-15T07:20:33;8.85;77.13
64937;SHT30;51452;47.698;19.050;2022-11-15T07:23:03;8.92;77.06
64937;SHT30;51452;47.698;19.050;2022-11-15T07:25:29;8.95;76.98
64937;SHT30;51452;47.698;19.050;2022-11-15T07:27:55;9.00;76.89
64937;SHT30;51452;47.698;19.050;2022-11-15T07:30:21;9.00;76.79
64937;SHT30;51452;47.698;19.050;2022-11-15T07:32:47;9.01;77.03
64937;SHT30;51452;47.698;19.050;2022-11-15T07:35:12;9.08;76.88
64937;SHT30;51452;47.698;19.050;2022-11-15T07:37:37;9.14;76.98
64937;SHT30;51452;47.698;19.050;2022-11-15T07:40:03;9.12;76.98
64937;SHT30;51452;47.698;19.050;2022-11-15T07:42:31;9.15;77.21
64937;SHT30;51452;47.698;19.050;2022-11-15T07:45:15;9.15;77.48
64937;SHT30;51452;47.698;19.050;2022-11-15T07:47:40;9.19;77.51
64937;SHT30;51452;47.698;19.050;2022-11-15T07:50:06;9.21;77.23
64937;SHT30;51452;47.698;19.050;2022-11-15T07:52:31;9.21;77.22
64937;SHT30;51452;47.698;19.050;2022-11-15T07:54:56;9.19;76.85
64937;SHT30;51452;47.698;19.050;2022-11-15T07:57:22;9.22;77.09
64937;SHT30;51452;47.698;19.050;2022-11-15T07:59:47;9.23;77.13
64937;SHT30;51452;47.698;19.050;2022-11-15T08:02:12;9.23;77.35
64937;SHT30;51452;47.698;19.050;2022-11-15T08:04:38;9.29;77.57
64937;SHT30;51452;47.698;19.050;2022-11-15T08:07:03;9.29;77.62
64937;SHT30;51452;47.698;19.050;2022-11-15T08:09:28;9.31;78.00
64937;SHT30;51452;47.698;19.050;2022-11-15T08:11:54;9.38;77.63
64937;SHT30;51452;47.698;19.050;2022-11-15T08:14:19;9.40;77.60
64937;SHT30;51452;47.698;19.050;2022-11-15T08:16:47;9.49;77.39
64937;SHT30;51452;47.698;19.050;2022-11-15T08:19:12;9.50;77.66
64937;SHT30;51452;47.698;19.050;2022-11-15T08:21:37;9.55;77.91
64937;SHT30;51452;47.698;19.050;2022-11-15T08:24:03;9.60;77.81
64937;SHT30;51452;47.698;19.050;2022-11-15T08:26:28;9.62;77.89
64937;SHT30;51452;47.698;19.050;2022-11-15T08:28:55;9.59;77.78
64937;SHT30;51452;47.698;19.050;2022-11-15T08:31:20;9.60;77.83
64937;SHT30;51452;47.698;19.050;2022-11-15T08:33:46;9.50;78.93
64937;SHT30;51452;47.698;19.050;2022-11-15T08:36:13;9.47;78.53
64937;SHT30;51452;47.698;19.050;2022-11-15T08:38:39;9.53;78.38
64937;SHT30;51452;47.698;19.050;2022-11-15T08:41:05;9.56;78.38
64937;SHT30;51452;47.698;19.050;2022-11-15T08:43:31;9.57;78.30
64937;SHT30;51452;47.698;19.050;2022-11-15T08:45:57;9.63;78.28
64937;SHT30;51452;47.698;19.050;2022-11-15T08:48:22;9.63;78.16
64937;SHT30;51452;47.698;19.050;2022-11-15T08:50:48;9.67;77.27
64937;SHT30;51452;47.698;19.050;2022-11-15T08:53:13;9.72;76.95
64937;SHT30;51452;47.698;19.050;2022-11-15T08:55:39;9.73;77.31
64937;SHT30;51452;47.698;19.050;2022-11-15T08:58:05;9.70;77.48
64937;SHT30;51452;47.698;19.050;2022-11-15T09:00:30;9.84;77.18
64937;SHT30;51452;47.698;19.050;2022-11-15T09:02:56;9.86;77.25
64937;SHT30;51452;47.698;19.050;2022-11-15T09:05:21;9.94;77.51
64937;SHT30;51452;47.698;19.050;2022-11-15T09:07:47;10.01;77.61
64937;SHT30;51452;47.698;19.050;2022-11-15T09:10:12;10.07;77.70
64937;SHT30;51452;47.698;19.050;2022-11-15T09:12:38;10.00;77.13
64937;SHT30;51452;47.698;19.050;2022-11-15T09:15:04;10.05;76.98
64937;SHT30;51452;47.698;19.050;2022-11-15T09:17:30;10.07;77.43
64937;SHT30;51452;47.698;19.050;2022-11-15T09:19:56;10.14;77.24
64937;SHT30;51452;47.698;19.050;2022-11-15T09:22:21;10.17;77.46
64937;SHT30;51452;47.698;19.050;2022-11-15T09:24:46;10.22;76.95
64937;SHT30;51452;47.698;19.050;2022-11-15T09:27:12;10.30;77.11
64937;SHT30;51452;47.698;19.050;2022-11-15T09:29:38;10.35;77.30
64937;SHT30;51452;47.698;19.050;2022-11-15T09:32:03;10.42;77.68
64937;SHT30;51452;47.698;19.050;2022-11-15T09:34:29;10.38;77.81
64937;SHT30;51452;47.698;19.050;2022-11-15T09:36:54;10.42;77.68
64937;SHT30;51452;47.698;19.050;2022-11-15T09:39:20;10.42;77.63
64937;SHT30;51452;47.698;19.050;2022-11-15T09:47:24;10.22;77.85
64937;SHT30;51452;47.698;19.050;2022-11-15T09:49:55;10.27;77.60
64937;SHT30;51452;47.698;19.050;2022-11-15T09:52:22;10.24;77.47
64937;SHT30;51452;47.698;19.050;2022-11-15T09:54:49;10.30;77.36
64937;SHT30;51452;47.698;19.050;2022-11-15T09:57:20;10.34;77.59
64937;SHT30;51452;47.698;19.050;2022-11-15T10:00:08;10.35;76.91
64937;SHT30;51452;47.698;19.050;2022-11-15T10:05:26;10.44;77.27
64937;SHT30;51452;47.698;19.050;2022-11-15T10:08:02;10.46;76.86
64937;SHT30;51452;47.698;19.050;2022-11-15T10:10:44;10.54;76.95
64937;SHT30;51452;47.698;19.050;2022-11-15T10:13:25;10.46;77.14
64937;SHT30;51452;47.698;19.050;2022-11-15T10:15:53;10.54;77.23
64937;SHT30;51452;47.698;19.050;2022-11-15T10:19:07;10.52;77.35
64937;SHT30;51452;47.698;19.050;2022-11-15T10:21:29;10.62;77.35
64937;SHT30;51452;47.698;19.050;2022-11-15T10:23:55;10.52;77.32
64937;SHT30;51452;47.698;19.050;2022-11-15T10:26:21;10.38;77.90
64937;SHT30;51452;47.698;19.050;2022-11-15T10:28:46;10.45;77.49
64937;SHT30;51452;47.698;19.050;2022-11-15T10:31:25;10.42;77.56
64937;SHT30;51452;47.698;19.050;2022-11-15T10:33:59;10.40;77.73
64937;SHT30;51452;47.698;19.050;2022-11-15T10:36:34;10.41;77.79
64937;SHT30;51452;47.698;19.050;2022-11-15T10:38:59;10.41;77.62
64937;SHT30;51452;47.698;19.050;2022-11-15T10:46:33;10.40;77.05
64937;SHT30;51452;47.698;19.050;2022-11-15T10:49:15;10.37;76.87
64937;SHT30;51452;47.698;19.050;2022-11-15T10:52:12;10.34;77.08
64937;SHT30;51452;47.698;19.050;2022-11-15T10:54:43;10.37;77.34
64937;SHT30;51452;47.698;19.050;2022-11-15T10:57:25;10.44;77.34
64937;SHT30;51452;47.698;19.050;2022-11-15T10:59:54;10.48;77.56
64937;SHT30;51452;47.698;19.050;2022-11-15T11:02:37;10.42;77.52
64937;SHT30;51452;47.698;19.050;2022-11-15T11:05:31;10.42;77.46
64937;SHT30;51452;47.698;19.050;2022-11-15T11:08:04;10.46;77.51
64937;SHT30;51452;47.698;19.050;2022-11-15T11:10:29;10.46;77.66
64937;SHT30;51452;47.698;19.050;2022-11-15T11:12:55;10.58;77.45
64937;SHT30;51452;47.698;19.050;2022-11-15T11:15:23;10.59;77.53
64937;SHT30;51452;47.698;19.050;2022-11-15T11:18:04;10.56;77.89
64937;SHT30;51452;47.698;19.050;2022-11-15T11:20:40;10.64;77.70
64937;SHT30;51452;47.698;19.050;2022-11-15T11:29:00;10.73;76.42
64937;SHT30;51452;47.698;19.050;2022-11-15T11:43:21;10.80;75.92
64937;SHT30;51452;47.698;19.050;2022-11-15T11:48:44;10.73;76.49
64937;SHT30;51452;47.698;19.050;2022-11-15T11:51:18;10.73;76.92
64937;SHT30;51452;47.698;19.050;2022-11-15T11:54:00;10.76;76.82
64937;SHT30;51452;47.698;19.050;2022-11-15T11:56:32;10.89;76.96
64937;SHT30;51452;47.698;19.050;2022-11-15T11:59:51;10.96;76.77
64937;SHT30;51452;47.698;19.050;2022-11-15T12:01:51;11.00;76.65
64937;SHT30;51452;47.698;19.050;2022-11-15T12:04:32;10.99;76.13
64937;SHT30;51452;47.698;19.050;2022-11-15T12:07:12;10.97;76.17
64937;SHT30;51452;47.698;19.050;2022-11-15T12:09:45;10.97;76.14
64937;SHT30;51452;47.698;19.050;2022-11-15T12:15:04;10.91;76.14
64937;SHT30;51452;47.698;19.050;2022-11-15T12:17:37;10.88;75.59
64937;SHT30;51452;47.698;19.050;2022-11-15T12:20:14;10.85;75.65
64937;SHT30;51452;47.698;19.050;2022-11-15T12:25:22;10.86;76.13
64937;SHT30;51452;47.698;19.050;2022-11-15T12:27:59;10.80;76.29
64937;SHT30;51452;47.698;19.050;2022-11-15T12:33:29;10.80;76.41
64937;SHT30;51452;47.698;19.050;2022-11-15T12:36:00;10.86;76.31
64937;SHT30;51452;47.698;19.050;2022-11-15T12:41:18;10.88;76.51
64937;SHT30;51452;47.698;19.050;2022-11-15T12:43:45;10.89;76.54
64937;SHT30;51452;47.698;19.050;2022-11-15T12:46:23;10.88;76.50
64937;SHT30;51452;47.698;19.050;2022-11-15T12:59:57;10.83;76.93
64937;SHT30;51452;47.698;19.050;2022-11-15T13:02:25;10.89;77.22
64937;SHT30;51452;47.698;19.050;2022-11-15T13:04:53;10.86;77.49
64937;SHT30;51452;47.698;19.050;2022-11-15T13:10:00;10.73;77.51
64937;SHT30;51452;47.698;19.050;2022-11-15T13:14:52;10.54;77.67
64937;SHT30;51452;47.698;19.050;2022-11-15T13:17:28;10.37;77.85
64937;SHT30;51452;47.698;19.050;2022-11-15T13:30:40;10.00;79.18
64937;SHT30;51452;47.698;19.050;2022-11-15T13:33:20;9.95;79.25
64937;SHT30;51452;47.698;19.050;2022-11-15T13:35:49;9.97;79.06
64937;SHT30;51452;47.698;19.050;2022-11-15T13:40:51;10.03;79.00
64937;SHT30;51452;47.698;19.050;2022-11-15T13:46:10;9.95;78.84
64937;SHT30;51452;47.698;19.050;2022-11-15T13:48:36;9.94;79.26
64937;SHT30;51452;47.698;19.050;2022-11-15T13:51:04;9.93;79.25
64937;SHT30;51452;47.698;19.050;2022-11-15T13:53:32;9.97;79.37
64937;SHT30;51452;47.698;19.050;2022-11-15T13:55:58;9.95;79.25
64937;SHT30;51452;47.698;19.050;2022-11-15T13:58:24;9.95;79.31
64937;SHT30;51452;47.698;19.050;2022-11-15T14:01:02;9.82;79.45
64937;SHT30;51452;47.698;19.050;2022-11-15T14:03:31;9.84;79.50
64937;SHT30;51452;47.698;19.050;2022-11-15T14:06:14;9.89;79.63
64937;SHT30;51452;47.698;19.050;2022-11-15T14:09:04;10.01;79.76
64937;SHT30;51452;47.698;19.050;2022-11-15T14:11:27;10.07;79.85
64937;SHT30;51452;47.698;19.050;2022-11-15T14:16:39;10.03;79.31
64937;SHT30;51452;47.698;19.050;2022-11-15T14:19:06;10.04;79.19
64937;SHT30;51452;47.698;19.050;2022-11-15T14:21:32;9.98;79.55
64937;SHT30;51452;47.698;19.050;2022-11-15T14:24:20;9.91;79.51
64937;SHT30;51452;47.698;19.050;2022-11-15T14:26:45;9.94;79.65
64937;SHT30;51452;47.698;19.050;2022-11-15T14:31:53;9.87;79.82
64937;SHT30;51452;47.698;19.050;2022-11-15T14:34:19;9.91;79.93
64937;SHT30;51452;47.698;19.050;2022-11-15T14:36:46;9.95;79.83
64937;SHT30;51452;47.698;19.050;2022-11-15T14:39:12;9.95;79.73
64937;SHT30;51452;47.698;19.050;2022-11-15T14:41:37;9.98;79.76
64937;SHT30;51452;47.698;19.050;2022-11-15T14:44:03;9.93;79.71
64937;SHT30;51452;47.698;19.050;2022-11-15T14:46:28;9.95;79.59
64937;SHT30;51452;47.698;19.050;2022-11-15T14:48:54;9.95;79.69
64937;SHT30;51452;47.698;19.050;2022-11-15T14:51:19;9.95;79.69
64937;SHT30;51452;47.698;19.050;2022-11-15T14:53:45;9.94;79.80
64937;SHT30;51452;47.698;19.050;2022-11-15T14:56:11;9.95;79.83
64937;SHT30;51452;47.698;19.050;2022-11-15T14:58:37;9.98;79.75
64937;SHT30;51452;47.698;19.050;2022-11-15T15:01:16;9.91;79.71
64937;SHT30;51452;47.698;19.050;2022-11-15T15:03:42;9.94;79.73
64937;SHT30;51452;47.698;19.050;2022-11-15T15:06:09;9.95;79.68
64937;SHT30;51452;47.698;19.050;2022-11-15T15:08:34;9.93;79.74
64937;SHT30;51452;47.698;19.050;2022-11-15T15:11:00;9.95;79.71
64937;SHT30;51452;47.698;19.050;2022-11-15T15:13:25;9.95;79.80
64937;SHT30;51452;47.698;19.050;2022-11-15T15:15:51;9.94;79.68
64937;SHT30;51452;47.698;19.050;2022-11-15T15:18:17;9.95;79.91
64937;SHT30;51452;47.698;19.050;2022-11-15T15:20:44;9.97;79.77
64937;SHT30;51452;47.698;19.050;2022-11-15T15:23:17;10.00;79.67
64937;SHT30;51452;47.698;19.050;2022-11-15T15:25:44;10.01;79.64
64937;SHT30;51452;47.698;19.050;2022-11-15T15:28:10;10.01;79.48
64937;SHT30;51452;47.698;19.050;2022-11-15T15:30:36;10.01;79.26
64937;SHT30;51452;47.698;19.050;2022-11-15T15:33:01;9.97;79.30
64937;SHT30;51452;47.698;19.050;2022-11-15T15:35:30;9.98;79.17
64937;SHT30;51452;47.698;19.050;2022-11-15T15:37:57;9.97;79.42
64937;SHT30;51452;47.698;19.050;2022-11-15T15:40:23;9.97;79.51
64937;SHT30;51452;47.698;19.050;2022-11-15T15:42:49;9.97;79.53
64937;SHT30;51452;47.698;19.050;2022-11-15T15:45:16;9.94;79.32
64937;SHT30;51452;47.698;19.050;2022-11-15T15:47:42;9.90;79.29
64937;SHT30;51452;47.698;19.050;2022-11-15T15:50:25;9.89;79.27
64937;SHT30;51452;47.698;19.050;2022-11-15T15:52:52;9.89;79.50
64937;SHT30;51452;47.698;19.050;2022-11-15T15:55:18;9.86;79.40
64937;SHT30;51452;47.698;19.050;2022-11-15T15:57:44;9.83;79.42
64937;SHT30;51452;47.698;19.050;2022-11-15T16:00:10;9.84;79.39
64937;SHT30;51452;47.698;19.050;2022-11-15T16:02:36;9.83;79.41
64937;SHT30;51452;47.698;19.050;2022-11-15T16:05:01;9.86;79.51
64937;SHT30;51452;47.698;19.050;2022-11-15T16:07:27;9.86;79.38
64937;SHT30;51452;47.698;19.050;2022-11-15T16:09:54;9.89;79.26
64937;SHT30;51452;47.698;19.050;2022-11-15T16:12:30;9.84;79.15
64937;SHT30;51452;47.698;19.050;2022-11-15T16:14:56;9.90;79.17
64937;SHT30;51452;47.698;19.050;2022-11-15T16:17:25;9.90;79.06
64937;SHT30;51452;47.698;19.050;2022-11-15T16:19:51;9.93;79.01
64937;SHT30;51452;47.698;19.050;2022-11-15T16:22:17;9.93;79.04
64937;SHT30;51452;47.698;19.050;2022-11-15T16:24:42;9.93;78.96
64937;SHT30;51452;47.698;19.050;2022-11-15T16:27:14;9.89;78.83
64937;SHT30;51452;47.698;19.050;2022-11-15T16:29:39;9.90;79.01
64937;SHT30;51452;47.698;19.050;2022-11-15T16:32:04;9.89;79.04
64937;SHT30;51452;47.698;19.050;2022-11-15T16:34:30;9.87;79.18
64937;SHT30;51452;47.698;19.050;2022-11-15T16:36:55;9.86;79.07
64937;SHT30;51452;47.698;19.050;2022-11-15T16:39:21;9.90;78.91
64937;SHT30;51452;47.698;19.050;2022-11-15T16:41:47;9.86;78.95
64937;SHT30;51452;47.698;19.050;2022-11-15T16:44:13;9.90;78.83
64937;SHT30;51452;47.698;19.050;2022-11-15T16:46:41;9.87;78.86
64937;SHT30;51452;47.698;19.050;2022-11-15T16:49:14;9.87;78.74
64937;SHT30;51452;47.698;19.050;2022-11-15T16:51:40;9.86;78.92
64937;SHT30;51452;47.698;19.050;2022-11-15T16:54:06;9.87;78.89
64937;SHT30;51452;47.698;19.050;2022-11-15T16:56:32;9.90;78.86
64937;SHT30;51452;47.698;19.050;2022-11-15T16:58:59;9.86;78.83
64937;SHT30;51452;47.698;19.050;2022-11-15T17:01:26;9.84;78.76
64937;SHT30;51452;47.698;19.050;2022-11-15T17:03:52;9.86;78.88
64937;SHT30;51452;47.698;19.050;2022-11-15T17:06:18;9.86;79.05
64937;SHT30;51452;47.698;19.050;2022-11-15T17:08:44;9.83;79.10
64937;SHT30;51452;47.698;19.050;2022-11-15T17:11:14;9.80;79.10
64937;SHT30;51452;47.698;19.050;2022-11-15T17:13:40;9.77;79.25
64937;SHT30;51452;47.698;19.050;2022-11-15T17:16:12;9.77;79.03
64937;SHT30;51452;47.698;19.050;2022-11-15T17:18:37;9.77;79.20
64937;SHT30;51452;47.698;19.050;2022-11-15T17:21:14;9.74;78.95
64937;SHT30;51452;47.698;19.050;2022-11-15T17:23:41;9.79;79.00
64937;SHT30;51452;47.698;19.050;2022-11-15T17:26:08;9.80;78.99
64937;SHT30;51452;47.698;19.050;2022-11-15T17:28:36;9.82;78.94